Weather reports worldwide

Advertisment
Marknesse aws, Netherlands (6273): temperature & dewpoint: 28.07.2020 21:00:00 - 03.08.2020 21:00:00 (CEST)Marknesse aws, Netherlands (6273): temperature 5cm & temperature -5cm: 28.07.2020 21:00:00 - 03.08.2020 21:00:00 (CEST)Marknesse aws, Netherlands (6273): temperature -20cm & temperature -100cm: 28.07.2020 21:00:00 - 03.08.2020 21:00:00 (CEST)Marknesse aws, Netherlands (6273): wind speed & gusts: 28.07.2020 21:00:00 - 03.08.2020 21:00:00 (CEST)Marknesse aws, Netherlands (6273): wind direction: 28.07.2020 21:00:00 - 03.08.2020 21:00:00 (CEST)Marknesse aws, Netherlands (6273): visibility: 28.07.2020 21:00:00 - 03.08.2020 21:00:00 (CEST)Marknesse aws, Netherlands (6273): precipitation: 28.07.2020 21:00:00 - 03.08.2020 21:00:00 (CEST)
Date & Time tt [°C] td [°C] tt 5cm [°C] tt -5cm [°C] tt -20cm [°C] tt -100cm [°C] ff [km/h] ff [kn] fx [km/h] fx [kn] dd vv [km] rr [mm]
03.08.2020 21:00:00 17,5 12,7 16,9 19,8 19,3 17,2 11 6 22 12 NW 75 0,0
03.08.2020 20:00:00 18,5 12,4 18,0 20,0 19,3 17,2 14 8 18 10 NW 80 0,0
03.08.2020 19:00:00 18,1 11,5 18,0 20,0 19,2 17,2 4 2 7 4 NNW 80 0,0
03.08.2020 18:00:00 17,8 10,9 17,7 20,2 19,1 17,2 4 2 22 12 WSW 80 0,0
03.08.2020 17:00:00 18,7 11,4 18,2 20,5 19,1 17,2 14 8 25 14 NW 75 0,0
03.08.2020 16:00:00 19,3 12,9 19,3 20,5 19,0 17,2 14 8 25 14 NNW 75 0,0
03.08.2020 15:00:00 20,1 11,3 21,2 20,3 18,9 17,2 7 4 22 12 WNW 75 0,0
03.08.2020 14:00:00 19,8 10,4 20,9 20,1 18,8 17,2 14 8 25 14 WNW 74 0,0
03.08.2020 13:00:00 19,9 11,5 20,4 19,5 18,8 17,2 11 6 22 12 W 73 0,0
03.08.2020 12:00:00 19,5 11,0 20,1 19,0 18,8 17,2 11 6 - - W 75 -
03.08.2020 11:00:00 19,2 11,9 21,1 18,3 18,8 17,1 - - - - - 75 0,0
03.08.2020 10:00:00 17,6 12,5 17,9 17,8 18,9 17,1 14 8 22 12 S 57 0,0
03.08.2020 09:00:00 16,2 12,8 16,1 17,4 19,0 17,1 11 6 14 8 S 15 0,0
03.08.2020 08:00:00 15,1 12,6 15,0 17,1 19,1 17,1 7 4 14 8 S 11 0,0
03.08.2020 07:00:00 14,1 11,9 13,2 17,0 19,2 17,1 7 4 11 6 S 7 0,0
03.08.2020 06:00:00 11,1 10,7 9,1 17,0 19,3 17,1 4 2 7 4 S 7 0,0
03.08.2020 05:00:00 10,0 9,5 8,6 17,3 19,4 17,1 0 0 4 2 N 7 0,0
03.08.2020 04:00:00 11,0 11,0 9,3 17,5 19,6 17,1 4 2 7 4 SW 2,7 0,0
03.08.2020 03:00:00 10,6 10,3 9,3 17,8 19,7 17,1 4 2 7 4 ESE 7 0,0
03.08.2020 02:00:00 10,9 10,3 9,4 18,1 19,8 17,1 0 0 4 2 N 8 0,0
03.08.2020 01:00:00 11,6 11,0 10,0 18,5 19,9 17,1 0 0 4 2 N 5 0,0
03.08.2020 00:00:00 12,8 12,1 11,0 18,9 19,9 17,1 4 2 7 4 SSW 5 0,0
02.08.2020 23:00:00 13,3 11,9 10,8 19,4 19,9 17,1 4 2 4 2 SW 75 0,0
02.08.2020 22:00:00 15,3 12,0 12,5 20,0 19,9 17,1 4 2 11 6 NW 4,8 0,0
02.08.2020 21:00:00 17,4 11,5 16,2 20,5 19,9 17,1 7 4 18 10 NW 75 0,0
02.08.2020 20:00:00 18,8 10,4 18,7 20,9 19,8 17,1 14 8 29 16 NW 75 0,0
02.08.2020 19:00:00 19,7 11,2 20,3 21,2 19,8 17,1 18 10 29 16 WNW 75 0,0
02.08.2020 18:00:00 19,9 9,6 21,0 21,4 19,7 17,1 22 12 32 18 WNW 75 0,0
02.08.2020 17:00:00 20,6 10,9 22,0 21,5 19,6 17,1 22 12 36 19 NW 75 0,0
02.08.2020 16:00:00 20,6 10,5 21,5 21,3 19,5 17,1 22 12 40 21 WNW 75 0,0
02.08.2020 15:00:00 20,8 10,7 22,4 21,0 19,4 17,1 25 14 40 21 WNW 75 0,0
02.08.2020 14:00:00 21,3 11,1 22,5 20,5 19,4 17,1 22 12 36 19 WNW 75 0,0
02.08.2020 13:00:00 20,6 10,9 21,5 20,1 19,4 17,1 25 14 36 19 WNW 75 0,0
02.08.2020 12:00:00 20,2 14,5 20,8 19,5 19,4 17,1 22 12 32 18 WNW 72 0,0
02.08.2020 11:00:00 19,3 15,5 19,4 19,2 19,4 17,1 18 10 29 16 WNW 69 0,0
02.08.2020 10:00:00 18,9 16,7 19,1 19,0 19,5 17,0 14 8 25 14 W 24 0,0
02.08.2020 09:00:00 18,2 17,0 18,5 18,6 19,6 17,0 11 6 18 10 SW 21 0,0
02.08.2020 08:00:00 16,8 15,9 16,5 18,4 19,7 17,0 7 4 14 8 SW 25 0,0
02.08.2020 07:00:00 15,1 14,4 14,8 18,4 19,8 17,0 7 4 14 8 SSW 16 0,0
02.08.2020 06:00:00 15,2 14,2 14,3 18,5 19,9 17,0 11 6 14 8 S 19 0,0
02.08.2020 05:00:00 14,3 13,6 11,8 18,7 20,0 17,0 7 4 7 4 S 18 0,0
02.08.2020 04:00:00 14,4 13,7 12,2 18,9 20,1 17,0 4 2 7 4 S 22 0,0
02.08.2020 03:00:00 13,6 13,0 12,3 19,2 20,2 17,0 4 2 4 2 SSE 13 0,0
02.08.2020 02:00:00 15,2 14,2 12,8 19,6 20,3 17,0 4 2 11 6 SW 22 0,0
02.08.2020 01:00:00 14,7 14,1 13,6 19,9 20,4 17,0 7 4 11 6 SSW 20 0,0
02.08.2020 00:00:00 15,0 14,4 13,8 20,3 20,4 17,0 4 2 7 4 SSW 25 0,0
01.08.2020 23:00:00 16,4 15,0 14,6 20,8 20,5 17,0 4 2 7 4 SW 46 0,0
01.08.2020 22:00:00 17,7 15,4 16,0 21,3 20,4 17,0 7 4 11 6 W 15 0,0
01.08.2020 21:00:00 19,9 15,6 19,0 21,7 20,4 17,0 11 6 22 12 WNW 75 0,0
01.08.2020 20:00:00 21,1 16,0 21,2 22,0 20,4 17,0 14 8 25 14 W 75 0,0
01.08.2020 19:00:00 21,6 17,8 21,4 22,1 20,3 17,0 14 8 22 12 WNW 28 0,0
01.08.2020 18:00:00 20,4 17,6 20,5 22,3 20,3 17,0 14 8 22 12 WNW 12 0,0
01.08.2020 17:00:00 22,3 17,9 22,6 22,5 20,2 17,0 14 8 22 12 WNW 53 0,0
01.08.2020 16:00:00 22,9 18,1 23,3 22,6 20,1 17,0 14 8 22 12 W 57 0,0
01.08.2020 15:00:00 23,5 18,5 23,6 22,6 20,0 17,0 14 8 25 14 W 34 0,0
01.08.2020 14:00:00 23,4 18,4 24,1 22,5 19,9 17,0 14 8 22 12 W 38 0,0
01.08.2020 13:00:00 23,7 18,5 24,6 22,2 19,8 17,0 11 6 25 14 WSW 49 0,0
01.08.2020 12:00:00 23,8 18,7 25,0 21,5 19,8 17,0 14 8 29 16 WSW 54 0,0
01.08.2020 11:00:00 22,6 19,1 23,8 20,8 19,8 17,0 18 10 32 18 W 27 0,0
01.08.2020 10:00:00 21,8 18,4 22,8 20,3 19,8 17,0 18 10 29 16 WSW 30 0,0
01.08.2020 09:00:00 21,0 18,5 21,1 20,0 19,8 17,0 11 6 22 12 WSW 30 0,0
01.08.2020 08:00:00 20,0 17,9 19,9 19,9 19,9 17,0 7 4 14 8 SSW 65 0,0
01.08.2020 07:00:00 19,3 17,2 18,8 19,8 20,0 17,0 7 4 25 14 SSE 80 0,0
01.08.2020 06:00:00 18,6 17,0 18,2 19,9 20,0 17,0 7 4 18 10 ESE 45 0,6
01.08.2020 05:00:00 18,7 15,9 18,3 20,0 20,1 17,0 7 4 14 8 SE 65 0,0
01.08.2020 04:00:00 19,6 15,3 18,8 20,1 20,2 17,0 11 6 25 14 SW 75 0,0
01.08.2020 03:00:00 19,7 15,0 18,8 20,3 20,2 17,0 18 10 25 14 ESE 72 0,0
01.08.2020 02:00:00 19,4 15,4 18,2 20,6 20,2 17,0 14 8 18 10 E 75 0,0
01.08.2020 01:00:00 20,0 15,4 18,8 20,9 20,3 17,0 14 8 22 12 E 75 0,0
01.08.2020 00:00:00 21,0 15,7 19,8 21,3 20,2 17,0 18 10 25 14 E 75 0,0
31.07.2020 23:00:00 20,9 16,8 19,1 21,8 20,2 17,0 14 8 18 10 E 72 0,0
31.07.2020 22:00:00 21,8 17,1 20,3 22,3 20,1 17,0 14 8 18 10 E 74 0,0
31.07.2020 21:00:00 24,2 17,6 22,7 22,8 20,0 17,0 14 8 18 10 E 75 0,0
31.07.2020 20:00:00 26,4 17,7 25,5 23,1 19,8 17,0 14 8 25 14 E 75 0,0
31.07.2020 19:00:00 27,4 17,5 27,0 23,4 19,7 17,0 18 10 25 14 E 75 0,0
31.07.2020 18:00:00 27,9 17,4 27,8 23,6 19,5 17,0 22 12 29 16 E 75 0,0
31.07.2020 17:00:00 27,9 17,3 28,4 23,8 19,2 17,0 18 10 29 16 E 75 0,0
31.07.2020 16:00:00 28,2 16,2 28,4 23,6 19,0 17,0 14 8 25 14 E 75 0,0
31.07.2020 15:00:00 27,2 16,2 28,1 23,0 18,9 17,0 14 8 25 14 E 75 0,0
31.07.2020 14:00:00 26,4 16,0 27,9 22,2 18,8 17,0 14 8 25 14 E 75 0,0
31.07.2020 13:00:00 25,7 15,7 27,0 21,1 18,7 17,0 14 8 29 16 ESE 75 0,0
31.07.2020 12:00:00 24,4 13,5 25,4 20,2 18,6 17,0 18 10 29 16 ESE 75 0,0
31.07.2020 11:00:00 23,4 14,6 24,5 19,3 18,7 17,0 18 10 25 14 ESE 75 0,0
31.07.2020 10:00:00 21,5 14,7 22,7 18,5 18,7 17,0 14 8 18 10 ESE 68 0,0
31.07.2020 09:00:00 19,6 14,2 20,9 18,0 18,8 17,0 11 6 14 8 ESE 51 0,0
31.07.2020 08:00:00 17,4 13,5 17,6 17,7 18,9 17,0 7 4 11 6 ESE 46 0,0
31.07.2020 07:00:00 14,4 12,7 13,6 17,7 19,0 17,0 7 4 7 4 E 26 0,0
31.07.2020 06:00:00 12,9 11,5 11,0 17,9 19,1 17,0 7 4 7 4 E 25 0,0
31.07.2020 05:00:00 12,9 12,0 11,4 18,2 19,2 17,0 7 4 7 4 ESE 18 0,0
31.07.2020 04:00:00 13,3 12,4 11,5 18,5 19,2 17,0 4 2 7 4 E 22 0,0
31.07.2020 03:00:00 13,4 12,2 12,2 18,8 19,3 17,0 7 4 7 4 E 34 0,0
31.07.2020 02:00:00 14,1 12,6 12,7 19,2 19,3 17,0 7 4 7 4 E 37 0,0
31.07.2020 01:00:00 14,7 13,0 13,2 19,6 19,3 17,0 7 4 11 6 ENE 41 0,0
31.07.2020 00:00:00 15,6 13,6 13,6 20,1 19,3 17,0 4 2 7 4 E 40 0,0
30.07.2020 23:00:00 16,4 13,9 14,8 20,7 19,2 17,0 7 4 7 4 ENE 74 0,0
30.07.2020 22:00:00 17,6 14,7 15,7 21,3 19,1 17,0 4 2 7 4 NE 23 0,0
30.07.2020 21:00:00 20,7 14,5 19,5 21,8 19,0 17,0 4 2 7 4 NE 74 0,0
30.07.2020 20:00:00 22,6 13,6 22,3 22,2 18,8 17,0 4 2 11 6 ENE 75 0,0
30.07.2020 19:00:00 23,0 14,1 23,6 22,5 18,5 17,0 4 2 11 6 E 75 0,0
30.07.2020 18:00:00 23,1 12,5 24,2 22,6 18,3 17,0 7 4 14 8 ENE 75 0,0
30.07.2020 17:00:00 23,1 11,8 24,7 22,4 18,1 17,0 4 2 14 8 E 75 0,0
30.07.2020 16:00:00 22,6 11,4 23,9 22,0 17,8 17,0 7 4 14 8 S 75 0,0
30.07.2020 15:00:00 22,6 11,0 24,1 21,3 17,7 17,0 7 4 18 10 SSW - 0,0
30.07.2020 14:00:00 22,0 10,9 24,6 20,2 17,5 17,0 7 4 18 10 SW 75 0,0
30.07.2020 13:00:00 21,3 11,5 23,7 19,1 17,4 17,0 11 6 22 12 S 75 0,0
30.07.2020 12:00:00 20,4 10,8 22,6 18,0 17,4 17,0 7 4 18 10 SSW 75 0,0
30.07.2020 11:00:00 19,4 11,0 21,5 17,0 17,4 17,0 11 6 18 10 S 75 0,0
30.07.2020 10:00:00 17,9 12,0 19,7 16,2 17,5 17,0 11 6 18 10 S 6 0,0
30.07.2020 09:00:00 15,7 11,0 16,6 15,7 17,6 17,0 14 8 18 10 S 13 0,0
30.07.2020 08:00:00 13,8 10,6 13,8 15,4 17,7 17,0 7 4 11 6 S 3,0 0,0
30.07.2020 07:00:00 11,4 10,3 10,7 15,3 17,8 17,0 4 2 7 4 S 4,0 0,0
30.07.2020 06:00:00 9,7 8,8 7,7 15,5 17,9 17,0 4 2 7 4 SE 29 0,0
30.07.2020 05:00:00 9,3 9,0 7,4 15,7 18,0 17,0 4 2 7 4 SSW 12 0,0
30.07.2020 04:00:00 8,9 8,4 7,2 16,0 18,1 17,0 4 2 7 4 S 19 0,0
30.07.2020 03:00:00 9,2 8,9 7,5 16,2 18,2 17,0 0 0 4 2 N 45 0,0
30.07.2020 02:00:00 8,9 8,5 7,5 16,6 18,3 17,0 4 2 7 4 SSW 68 0,0
30.07.2020 01:00:00 10,5 9,8 8,6 16,9 18,4 17,0 4 2 7 4 SW 43 0,0
30.07.2020 00:00:00 10,3 9,4 8,4 17,2 18,4 17,0 4 2 7 4 WSW 55 0,0
29.07.2020 23:00:00 11,3 9,8 8,9 17,7 18,4 17,0 4 2 7 4 SW 69 0,0
29.07.2020 22:00:00 13,1 10,2 11,2 18,1 18,4 17,0 4 2 11 6 W 15 0,0
29.07.2020 21:00:00 15,9 9,1 15,3 18,4 18,4 17,0 11 6 22 12 WNW 75 0,0
29.07.2020 20:00:00 16,5 8,9 16,1 18,6 18,3 17,0 14 8 29 16 WNW 75 0,0
29.07.2020 19:00:00 16,9 9,8 17,2 18,8 18,3 17,0 14 8 32 18 W 75 0,0
29.07.2020 18:00:00 16,9 9,7 17,2 19,0 18,2 17,0 22 12 40 21 W 75 0,0
29.07.2020 17:00:00 18,0 8,7 19,2 18,8 18,2 17,0 25 14 40 21 W 75 0,0
29.07.2020 16:00:00 17,8 10,7 17,8 18,8 18,1 17,0 18 10 40 21 W 75 0,0
29.07.2020 15:00:00 17,7 10,3 18,7 18,5 18,1 17,0 18 10 36 19 W 75 0,0
29.07.2020 14:00:00 17,3 9,1 17,4 18,2 18,1 17,0 18 10 36 19 W 75 0,0
29.07.2020 13:00:00 17,6 9,3 18,3 18,0 18,1 17,0 22 12 36 19 W 75 0,0
29.07.2020 12:00:00 16,7 9,7 18,1 17,6 18,1 17,0 22 12 36 19 W 75 0,0
29.07.2020 11:00:00 16,1 9,5 16,6 17,3 18,2 17,0 18 10 32 18 W 74 0,0
29.07.2020 10:00:00 16,1 9,6 16,6 17,0 18,2 17,0 18 10 40 21 W 73 0,0
29.07.2020 09:00:00 15,8 10,4 15,7 16,8 18,3 17,0 22 12 32 18 W 62 0,0
29.07.2020 08:00:00 15,5 10,8 15,7 16,7 18,4 16,9 18 10 32 18 W 75 0,0
29.07.2020 07:00:00 13,9 10,8 13,1 16,8 18,5 16,9 11 6 18 10 W 72 0,0
29.07.2020 06:00:00 13,7 10,6 12,8 17,0 18,5 16,9 11 6 25 14 W 72 0,0
29.07.2020 05:00:00 15,4 10,6 14,8 17,2 18,6 16,9 18 10 32 18 W 75 0,0
29.07.2020 04:00:00 15,3 10,8 14,8 17,3 18,7 16,9 18 10 29 16 W 75 0,0
29.07.2020 03:00:00 15,4 10,6 14,8 17,5 18,8 16,9 14 8 29 16 W 75 0,0
29.07.2020 02:00:00 15,2 10,3 14,4 17,8 18,8 16,9 11 6 29 16 W 61 0,0
29.07.2020 01:00:00 15,7 10,0 14,7 18,0 18,9 16,9 14 8 29 16 W 72 0,0
29.07.2020 00:00:00 15,9 10,5 15,0 18,2 18,9 16,9 11 6 22 12 W 70 0,0
28.07.2020 23:00:00 15,2 10,7 14,4 18,5 19,0 16,9 7 4 29 16 W 68 0,0
28.07.2020 22:00:00 16,3 10,1 15,6 18,8 19,0 16,9 11 6 22 12 W 73 0,0
28.07.2020 21:00:00 16,3 11,2 15,8 19,1 19,0 16,9 11 6 29 16 W 72 0,0

tt = temperature
td = dewpoint
tt 5cm = temperature 5cm
tt -5cm = temperature -5cm
tt -20cm = temperature -20cm
tt -100cm = temperature -100cm
ff = wind speed
fx = gusts
dd = wind direction
vv = visibility
rr = precipitation

Next stations